sensor_id;sensor_type;location;lat;lon;timestamp;temperature;humidity
26182;DHT22;13927;51.534;11.866;2023-11-19T00:00:34;6.00;99.90
26182;DHT22;13927;51.534;11.866;2023-11-19T00:03:00;5.90;99.90
26182;DHT22;13927;51.534;11.866;2023-11-19T00:05:27;6.00;99.90
26182;DHT22;13927;51.534;11.866;2023-11-19T00:07:55;6.00;99.90
26182;DHT22;13927;51.534;11.866;2023-11-19T00:10:21;5.90;99.90
26182;DHT22;13927;51.534;11.866;2023-11-19T00:12:48;5.90;99.90
26182;DHT22;13927;51.534;11.866;2023-11-19T00:15:15;5.90;99.90
26182;DHT22;13927;51.534;11.866;2023-11-19T00:17:45;5.90;99.90
26182;DHT22;13927;51.534;11.866;2023-11-19T00:20:12;5.90;99.90
26182;DHT22;13927;51.534;11.866;2023-11-19T00:22:39;5.90;99.90
26182;DHT22;13927;51.534;11.866;2023-11-19T00:25:05;5.90;99.90
26182;DHT22;13927;51.534;11.866;2023-11-19T00:27:31;5.80;99.90
26182;DHT22;13927;51.534;11.866;2023-11-19T00:29:57;5.80;99.90
26182;DHT22;13927;51.534;11.866;2023-11-19T00:32:23;5.80;99.90
26182;DHT22;13927;51.534;11.866;2023-11-19T00:34:49;5.80;99.90
26182;DHT22;13927;51.534;11.866;2023-11-19T00:37:15;5.70;99.90
26182;DHT22;13927;51.534;11.866;2023-11-19T00:39:44;5.70;99.90
26182;DHT22;13927;51.534;11.866;2023-11-19T00:42:11;5.60;99.90
26182;DHT22;13927;51.534;11.866;2023-11-19T00:44:37;5.60;99.90
26182;DHT22;13927;51.534;11.866;2023-11-19T00:47:02;5.60;99.90
26182;DHT22;13927;51.534;11.866;2023-11-19T00:49:28;5.50;99.90
26182;DHT22;13927;51.534;11.866;2023-11-19T00:51:54;5.60;99.90
26182;DHT22;13927;51.534;11.866;2023-11-19T00:54:20;5.60;99.90
26182;DHT22;13927;51.534;11.866;2023-11-19T00:56:46;5.50;99.90
26182;DHT22;13927;51.534;11.866;2023-11-19T00:59:11;5.50;99.90
26182;DHT22;13927;51.534;11.866;2023-11-19T01:01:37;5.50;99.90
26182;DHT22;13927;51.534;11.866;2023-11-19T01:04:03;5.50;99.90
26182;DHT22;13927;51.534;11.866;2023-11-19T01:06:30;5.50;99.90
26182;DHT22;13927;51.534;11.866;2023-11-19T01:08:56;5.50;99.90
26182;DHT22;13927;51.534;11.866;2023-11-19T01:11:23;5.60;99.90
26182;DHT22;13927;51.534;11.866;2023-11-19T01:13:49;5.50;99.90
26182;DHT22;13927;51.534;11.866;2023-11-19T01:16:15;5.60;99.90
26182;DHT22;13927;51.534;11.866;2023-11-19T01:18:41;5.60;99.90
26182;DHT22;13927;51.534;11.866;2023-11-19T01:21:07;5.60;99.90
26182;DHT22;13927;51.534;11.866;2023-11-19T01:23:34;5.60;99.90
26182;DHT22;13927;51.534;11.866;2023-11-19T01:26:00;5.70;99.90
26182;DHT22;13927;51.534;11.866;2023-11-19T01:28:26;5.70;99.90
26182;DHT22;13927;51.534;11.866;2023-11-19T01:30:52;5.70;99.90
26182;DHT22;13927;51.534;11.866;2023-11-19T01:33:18;5.70;99.90
26182;DHT22;13927;51.534;11.866;2023-11-19T01:35:44;5.70;99.90
26182;DHT22;13927;51.534;11.866;2023-11-19T01:38:10;5.70;99.90
26182;DHT22;13927;51.534;11.866;2023-11-19T01:40:36;5.70;99.90
26182;DHT22;13927;51.534;11.866;2023-11-19T01:43:03;5.70;99.90
26182;DHT22;13927;51.534;11.866;2023-11-19T01:45:30;5.70;99.90
26182;DHT22;13927;51.534;11.866;2023-11-19T01:47:57;5.70;99.90
26182;DHT22;13927;51.534;11.866;2023-11-19T01:50:23;5.80;99.90
26182;DHT22;13927;51.534;11.866;2023-11-19T01:52:53;5.80;99.90
26182;DHT22;13927;51.534;11.866;2023-11-19T01:55:20;5.80;99.90
26182;DHT22;13927;51.534;11.866;2023-11-19T01:57:48;5.80;99.90
26182;DHT22;13927;51.534;11.866;2023-11-19T02:00:15;5.80;99.90
26182;DHT22;13927;51.534;11.866;2023-11-19T02:02:42;5.80;99.90
26182;DHT22;13927;51.534;11.866;2023-11-19T02:05:10;5.80;99.90
26182;DHT22;13927;51.534;11.866;2023-11-19T02:07:36;5.80;99.90
26182;DHT22;13927;51.534;11.866;2023-11-19T02:10:02;5.80;99.90
26182;DHT22;13927;51.534;11.866;2023-11-19T02:12:31;5.90;99.90
26182;DHT22;13927;51.534;11.866;2023-11-19T02:15:01;5.90;99.90
26182;DHT22;13927;51.534;11.866;2023-11-19T02:17:29;6.00;99.90
26182;DHT22;13927;51.534;11.866;2023-11-19T02:19:59;6.00;99.90
26182;DHT22;13927;51.534;11.866;2023-11-19T02:22:25;6.10;99.90
26182;DHT22;13927;51.534;11.866;2023-11-19T02:24:55;6.20;99.90
26182;DHT22;13927;51.534;11.866;2023-11-19T02:27:39;6.20;99.90
26182;DHT22;13927;51.534;11.866;2023-11-19T02:30:13;6.30;99.90
26182;DHT22;13927;51.534;11.866;2023-11-19T02:32:41;6.30;99.90
26182;DHT22;13927;51.534;11.866;2023-11-19T02:35:08;6.30;99.90
26182;DHT22;13927;51.534;11.866;2023-11-19T02:37:34;6.30;99.90
26182;DHT22;13927;51.534;11.866;2023-11-19T02:40:00;6.30;99.90
26182;DHT22;13927;51.534;11.866;2023-11-19T02:42:28;6.30;99.90
26182;DHT22;13927;51.534;11.866;2023-11-19T02:44:54;6.30;99.90
26182;DHT22;13927;51.534;11.866;2023-11-19T02:47:20;6.30;99.90
26182;DHT22;13927;51.534;11.866;2023-11-19T02:49:47;6.30;99.90
26182;DHT22;13927;51.534;11.866;2023-11-19T02:52:13;6.20;99.90
26182;DHT22;13927;51.534;11.866;2023-11-19T02:54:40;6.30;99.90
26182;DHT22;13927;51.534;11.866;2023-11-19T02:57:06;6.30;99.90
26182;DHT22;13927;51.534;11.866;2023-11-19T02:59:38;6.30;99.90
26182;DHT22;13927;51.534;11.866;2023-11-19T03:02:10;6.40;99.90
26182;DHT22;13927;51.534;11.866;2023-11-19T03:04:39;6.40;99.90
26182;DHT22;13927;51.534;11.866;2023-11-19T03:07:06;6.40;99.90
26182;DHT22;13927;51.534;11.866;2023-11-19T03:09:33;6.40;99.90
26182;DHT22;13927;51.534;11.866;2023-11-19T03:12:00;6.40;99.90
26182;DHT22;13927;51.534;11.866;2023-11-19T03:14:26;6.40;99.90
26182;DHT22;13927;51.534;11.866;2023-11-19T03:16:53;6.50;99.90
26182;DHT22;13927;51.534;11.866;2023-11-19T03:19:18;6.50;99.90
26182;DHT22;13927;51.534;11.866;2023-11-19T03:21:44;6.50;99.90
26182;DHT22;13927;51.534;11.866;2023-11-19T03:24:13;6.50;99.90
26182;DHT22;13927;51.534;11.866;2023-11-19T03:26:38;6.50;99.90
26182;DHT22;13927;51.534;11.866;2023-11-19T03:29:04;6.50;99.90
26182;DHT22;13927;51.534;11.866;2023-11-19T03:31:30;6.60;99.90
26182;DHT22;13927;51.534;11.866;2023-11-19T03:33:56;6.60;99.90
26182;DHT22;13927;51.534;11.866;2023-11-19T03:36:22;6.60;99.90
26182;DHT22;13927;51.534;11.866;2023-11-19T03:38:48;6.60;99.90
26182;DHT22;13927;51.534;11.866;2023-11-19T03:41:14;6.60;99.90
26182;DHT22;13927;51.534;11.866;2023-11-19T03:43:40;6.60;99.90
26182;DHT22;13927;51.534;11.866;2023-11-19T03:46:19;6.70;99.90
26182;DHT22;13927;51.534;11.866;2023-11-19T03:48:49;6.80;99.90
26182;DHT22;13927;51.534;11.866;2023-11-19T03:51:16;6.70;99.90
26182;DHT22;13927;51.534;11.866;2023-11-19T03:53:43;6.80;99.90
26182;DHT22;13927;51.534;11.866;2023-11-19T03:56:10;6.80;99.90
26182;DHT22;13927;51.534;11.866;2023-11-19T03:58:37;6.80;99.90
26182;DHT22;13927;51.534;11.866;2023-11-19T04:01:10;6.80;99.90
26182;DHT22;13927;51.534;11.866;2023-11-19T04:03:37;6.90;99.90
26182;DHT22;13927;51.534;11.866;2023-11-19T04:06:03;6.90;99.90
26182;DHT22;13927;51.534;11.866;2023-11-19T04:08:29;7.00;99.90
26182;DHT22;13927;51.534;11.866;2023-11-19T04:10:55;7.00;99.90
26182;DHT22;13927;51.534;11.866;2023-11-19T04:13:21;7.10;99.90
26182;DHT22;13927;51.534;11.866;2023-11-19T04:15:49;7.20;99.90
26182;DHT22;13927;51.534;11.866;2023-11-19T04:18:15;7.20;99.90
26182;DHT22;13927;51.534;11.866;2023-11-19T04:20:41;7.20;99.90
26182;DHT22;13927;51.534;11.866;2023-11-19T04:23:08;7.30;99.90
26182;DHT22;13927;51.534;11.866;2023-11-19T04:25:35;7.40;99.90
26182;DHT22;13927;51.534;11.866;2023-11-19T04:28:01;7.40;99.90
26182;DHT22;13927;51.534;11.866;2023-11-19T04:30:28;7.40;99.90
26182;DHT22;13927;51.534;11.866;2023-11-19T04:32:53;7.50;99.90
26182;DHT22;13927;51.534;11.866;2023-11-19T04:35:19;7.50;99.90
26182;DHT22;13927;51.534;11.866;2023-11-19T04:37:45;7.50;99.90
26182;DHT22;13927;51.534;11.866;2023-11-19T04:40:11;7.60;99.90
26182;DHT22;13927;51.534;11.866;2023-11-19T04:42:37;7.60;99.90
26182;DHT22;13927;51.534;11.866;2023-11-19T04:45:06;7.70;99.90
26182;DHT22;13927;51.534;11.866;2023-11-19T04:47:33;7.70;99.90
26182;DHT22;13927;51.534;11.866;2023-11-19T04:49:59;7.70;99.90
26182;DHT22;13927;51.534;11.866;2023-11-19T04:52:25;7.70;99.90
26182;DHT22;13927;51.534;11.866;2023-11-19T04:54:51;7.70;99.90
26182;DHT22;13927;51.534;11.866;2023-11-19T04:57:17;7.70;99.90
26182;DHT22;13927;51.534;11.866;2023-11-19T04:59:43;7.60;99.90
26182;DHT22;13927;51.534;11.866;2023-11-19T05:02:09;7.60;99.90
26182;DHT22;13927;51.534;11.866;2023-11-19T05:04:35;7.60;99.90
26182;DHT22;13927;51.534;11.866;2023-11-19T05:07:01;7.60;99.90
26182;DHT22;13927;51.534;11.866;2023-11-19T05:09:27;7.60;99.90
26182;DHT22;13927;51.534;11.866;2023-11-19T05:11:52;7.60;99.90
26182;DHT22;13927;51.534;11.866;2023-11-19T05:14:19;7.60;99.90
26182;DHT22;13927;51.534;11.866;2023-11-19T05:16:45;7.50;99.90
26182;DHT22;13927;51.534;11.866;2023-11-19T05:19:11;7.60;99.90
26182;DHT22;13927;51.534;11.866;2023-11-19T05:21:37;7.60;99.90
26182;DHT22;13927;51.534;11.866;2023-11-19T05:24:03;7.70;99.90
26182;DHT22;13927;51.534;11.866;2023-11-19T05:26:30;7.70;99.90
26182;DHT22;13927;51.534;11.866;2023-11-19T05:28:56;7.80;99.90
26182;DHT22;13927;51.534;11.866;2023-11-19T05:31:21;7.80;99.90
26182;DHT22;13927;51.534;11.866;2023-11-19T05:33:47;7.80;99.90
26182;DHT22;13927;51.534;11.866;2023-11-19T05:36:13;7.90;99.90
26182;DHT22;13927;51.534;11.866;2023-11-19T05:38:39;7.90;99.90
26182;DHT22;13927;51.534;11.866;2023-11-19T05:41:05;7.90;99.90
26182;DHT22;13927;51.534;11.866;2023-11-19T05:43:32;8.00;99.90
26182;DHT22;13927;51.534;11.866;2023-11-19T05:45:57;8.00;99.90
26182;DHT22;13927;51.534;11.866;2023-11-19T05:48:25;8.00;99.90
26182;DHT22;13927;51.534;11.866;2023-11-19T05:50:51;8.00;99.90
26182;DHT22;13927;51.534;11.866;2023-11-19T05:53:17;8.00;99.90
26182;DHT22;13927;51.534;11.866;2023-11-19T05:55:43;8.10;99.90
26182;DHT22;13927;51.534;11.866;2023-11-19T05:58:15;8.10;99.90
26182;DHT22;13927;51.534;11.866;2023-11-19T06:00:41;8.20;99.90
26182;DHT22;13927;51.534;11.866;2023-11-19T06:03:08;8.20;99.90
26182;DHT22;13927;51.534;11.866;2023-11-19T06:05:34;8.20;99.90
26182;DHT22;13927;51.534;11.866;2023-11-19T06:08:00;8.20;99.90
26182;DHT22;13927;51.534;11.866;2023-11-19T06:10:26;8.20;99.90
26182;DHT22;13927;51.534;11.866;2023-11-19T06:12:57;8.30;99.90
26182;DHT22;13927;51.534;11.866;2023-11-19T06:15:28;8.20;99.90
26182;DHT22;13927;51.534;11.866;2023-11-19T06:17:53;8.20;99.90
26182;DHT22;13927;51.534;11.866;2023-11-19T06:20:20;8.10;99.90
26182;DHT22;13927;51.534;11.866;2023-11-19T06:22:46;8.10;99.90
26182;DHT22;13927;51.534;11.866;2023-11-19T06:25:13;8.10;99.90
26182;DHT22;13927;51.534;11.866;2023-11-19T06:27:41;8.10;99.90
26182;DHT22;13927;51.534;11.866;2023-11-19T06:30:08;8.10;99.90
26182;DHT22;13927;51.534;11.866;2023-11-19T06:32:34;8.10;99.90
26182;DHT22;13927;51.534;11.866;2023-11-19T06:35:00;8.00;99.90
26182;DHT22;13927;51.534;11.866;2023-11-19T06:37:25;8.00;99.90
26182;DHT22;13927;51.534;11.866;2023-11-19T06:39:52;8.00;99.90
26182;DHT22;13927;51.534;11.866;2023-11-19T06:42:18;8.00;99.90
26182;DHT22;13927;51.534;11.866;2023-11-19T06:44:44;8.10;99.90
26182;DHT22;13927;51.534;11.866;2023-11-19T06:47:09;8.20;99.90
26182;DHT22;13927;51.534;11.866;2023-11-19T06:49:35;8.20;99.90
26182;DHT22;13927;51.534;11.866;2023-11-19T06:52:01;8.20;99.90
26182;DHT22;13927;51.534;11.866;2023-11-19T06:54:27;8.30;99.90
26182;DHT22;13927;51.534;11.866;2023-11-19T06:56:52;8.30;99.90
26182;DHT22;13927;51.534;11.866;2023-11-19T06:59:18;8.30;99.90
26182;DHT22;13927;51.534;11.866;2023-11-19T07:01:44;8.30;99.90
26182;DHT22;13927;51.534;11.866;2023-11-19T07:04:13;8.30;99.90
26182;DHT22;13927;51.534;11.866;2023-11-19T07:06:39;8.30;99.90
26182;DHT22;13927;51.534;11.866;2023-11-19T07:09:09;8.30;99.90
26182;DHT22;13927;51.534;11.866;2023-11-19T07:11:43;8.20;99.90
26182;DHT22;13927;51.534;11.866;2023-11-19T07:14:11;8.30;99.90
26182;DHT22;13927;51.534;11.866;2023-11-19T07:16:37;8.30;99.90
26182;DHT22;13927;51.534;11.866;2023-11-19T07:19:05;8.30;99.90
26182;DHT22;13927;51.534;11.866;2023-11-19T07:21:31;8.30;99.90
26182;DHT22;13927;51.534;11.866;2023-11-19T07:23:59;8.30;99.90
26182;DHT22;13927;51.534;11.866;2023-11-19T07:26:25;8.30;99.90
26182;DHT22;13927;51.534;11.866;2023-11-19T07:28:51;8.40;99.90
26182;DHT22;13927;51.534;11.866;2023-11-19T07:31:17;8.50;99.90
26182;DHT22;13927;51.534;11.866;2023-11-19T07:33:45;8.50;99.90
26182;DHT22;13927;51.534;11.866;2023-11-19T07:36:12;8.70;99.90
26182;DHT22;13927;51.534;11.866;2023-11-19T07:38:39;8.80;99.90
26182;DHT22;13927;51.534;11.866;2023-11-19T07:41:08;8.80;99.90
26182;DHT22;13927;51.534;11.866;2023-11-19T07:43:39;8.90;99.90
26182;DHT22;13927;51.534;11.866;2023-11-19T07:46:11;9.00;99.90
26182;DHT22;13927;51.534;11.866;2023-11-19T07:48:39;9.00;99.90
26182;DHT22;13927;51.534;11.866;2023-11-19T07:51:05;9.00;99.90
26182;DHT22;13927;51.534;11.866;2023-11-19T07:53:31;9.00;99.90
26182;DHT22;13927;51.534;11.866;2023-11-19T07:55:58;9.00;99.90
26182;DHT22;13927;51.534;11.866;2023-11-19T07:58:25;9.00;99.90
26182;DHT22;13927;51.534;11.866;2023-11-19T08:00:51;9.10;99.90
26182;DHT22;13927;51.534;11.866;2023-11-19T08:03:17;9.20;99.90
26182;DHT22;13927;51.534;11.866;2023-11-19T08:05:55;9.30;99.90
26182;DHT22;13927;51.534;11.866;2023-11-19T08:08:22;9.40;99.90
26182;DHT22;13927;51.534;11.866;2023-11-19T08:10:49;9.50;99.90
26182;DHT22;13927;51.534;11.866;2023-11-19T08:13:21;9.70;99.90
26182;DHT22;13927;51.534;11.866;2023-11-19T08:15:49;9.90;99.90
26182;DHT22;13927;51.534;11.866;2023-11-19T08:18:16;10.20;99.90
26182;DHT22;13927;51.534;11.866;2023-11-19T08:20:44;10.40;99.90
26182;DHT22;13927;51.534;11.866;2023-11-19T08:23:11;10.50;99.90
26182;DHT22;13927;51.534;11.866;2023-11-19T08:25:37;10.60;99.90
26182;DHT22;13927;51.534;11.866;2023-11-19T08:28:03;10.70;99.90
26182;DHT22;13927;51.534;11.866;2023-11-19T08:30:30;10.70;99.90
26182;DHT22;13927;51.534;11.866;2023-11-19T08:32:57;10.80;99.90
26182;DHT22;13927;51.534;11.866;2023-11-19T08:35:29;10.90;99.90
26182;DHT22;13927;51.534;11.866;2023-11-19T08:40:28;11.20;99.90
26182;DHT22;13927;51.534;11.866;2023-11-19T08:43:03;11.40;99.90
26182;DHT22;13927;51.534;11.866;2023-11-19T08:45:34;11.50;99.90
26182;DHT22;13927;51.534;11.866;2023-11-19T08:48:06;11.60;99.90
26182;DHT22;13927;51.534;11.866;2023-11-19T08:50:35;11.70;99.90
26182;DHT22;13927;51.534;11.866;2023-11-19T08:53:01;11.70;99.90
26182;DHT22;13927;51.534;11.866;2023-11-19T08:55:32;11.70;99.90
26182;DHT22;13927;51.534;11.866;2023-11-19T08:57:58;11.60;99.90
26182;DHT22;13927;51.534;11.866;2023-11-19T09:00:24;11.40;99.90
26182;DHT22;13927;51.534;11.866;2023-11-19T09:02:50;11.30;99.90
26182;DHT22;13927;51.534;11.866;2023-11-19T09:05:16;11.20;99.90
26182;DHT22;13927;51.534;11.866;2023-11-19T09:07:43;11.10;99.90
26182;DHT22;13927;51.534;11.866;2023-11-19T09:10:11;11.10;99.90
26182;DHT22;13927;51.534;11.866;2023-11-19T09:12:40;11.20;99.90
26182;DHT22;13927;51.534;11.866;2023-11-19T09:15:09;11.20;99.90
26182;DHT22;13927;51.534;11.866;2023-11-19T09:17:38;11.20;99.90
26182;DHT22;13927;51.534;11.866;2023-11-19T09:20:05;11.30;99.90
26182;DHT22;13927;51.534;11.866;2023-11-19T09:22:31;11.20;99.90
26182;DHT22;13927;51.534;11.866;2023-11-19T09:24:58;11.20;99.90
26182;DHT22;13927;51.534;11.866;2023-11-19T09:27:25;11.10;99.90
26182;DHT22;13927;51.534;11.866;2023-11-19T09:29:52;11.20;99.90
26182;DHT22;13927;51.534;11.866;2023-11-19T09:32:22;11.20;99.90
26182;DHT22;13927;51.534;11.866;2023-11-19T09:34:48;11.20;99.90
26182;DHT22;13927;51.534;11.866;2023-11-19T09:37:14;11.20;99.90
26182;DHT22;13927;51.534;11.866;2023-11-19T09:39:40;11.20;99.90
26182;DHT22;13927;51.534;11.866;2023-11-19T09:42:09;11.20;99.90
26182;DHT22;13927;51.534;11.866;2023-11-19T09:44:37;11.30;99.90
26182;DHT22;13927;51.534;11.866;2023-11-19T09:47:05;11.30;99.90
26182;DHT22;13927;51.534;11.866;2023-11-19T09:49:33;11.30;99.90
26182;DHT22;13927;51.534;11.866;2023-11-19T09:52:01;11.40;99.90
26182;DHT22;13927;51.534;11.866;2023-11-19T09:54:28;11.50;99.90
26182;DHT22;13927;51.534;11.866;2023-11-19T09:56:56;11.50;99.90
26182;DHT22;13927;51.534;11.866;2023-11-19T09:59:28;11.50;99.90
26182;DHT22;13927;51.534;11.866;2023-11-19T10:01:56;11.50;99.90
26182;DHT22;13927;51.534;11.866;2023-11-19T10:04:22;11.50;99.90
26182;DHT22;13927;51.534;11.866;2023-11-19T10:06:50;11.50;99.90
26182;DHT22;13927;51.534;11.866;2023-11-19T10:09:17;11.50;99.90
26182;DHT22;13927;51.534;11.866;2023-11-19T10:11:49;11.50;99.90
26182;DHT22;13927;51.534;11.866;2023-11-19T10:14:15;11.60;99.90
26182;DHT22;13927;51.534;11.866;2023-11-19T10:16:44;11.60;99.90
26182;DHT22;13927;51.534;11.866;2023-11-19T10:19:19;11.60;99.90
26182;DHT22;13927;51.534;11.866;2023-11-19T10:21:46;11.70;99.90
26182;DHT22;13927;51.534;11.866;2023-11-19T10:24:12;11.60;99.90
26182;DHT22;13927;51.534;11.866;2023-11-19T10:26:38;11.60;99.90
26182;DHT22;13927;51.534;11.866;2023-11-19T10:29:04;11.50;99.90
26182;DHT22;13927;51.534;11.866;2023-11-19T10:31:30;11.50;99.90
26182;DHT22;13927;51.534;11.866;2023-11-19T10:33:56;11.50;99.90
26182;DHT22;13927;51.534;11.866;2023-11-19T10:36:22;11.50;99.90
26182;DHT22;13927;51.534;11.866;2023-11-19T10:38:55;11.60;99.90
26182;DHT22;13927;51.534;11.866;2023-11-19T10:41:29;11.70;99.90
26182;DHT22;13927;51.534;11.866;2023-11-19T10:43:58;11.80;99.90
26182;DHT22;13927;51.534;11.866;2023-11-19T10:46:58;11.80;99.90
26182;DHT22;13927;51.534;11.866;2023-11-19T10:49:28;11.90;99.90
26182;DHT22;13927;51.534;11.866;2023-11-19T10:51:58;12.00;99.90
26182;DHT22;13927;51.534;11.866;2023-11-19T10:54:29;12.10;99.90
26182;DHT22;13927;51.534;11.866;2023-11-19T10:57:10;12.30;99.90
26182;DHT22;13927;51.534;11.866;2023-11-19T10:59:52;12.60;99.90
26182;DHT22;13927;51.534;11.866;2023-11-19T11:02:27;12.90;99.90
26182;DHT22;13927;51.534;11.866;2023-11-19T11:04:57;13.00;99.90
26182;DHT22;13927;51.534;11.866;2023-11-19T11:07:30;13.10;99.90
26182;DHT22;13927;51.534;11.866;2023-11-19T11:09:58;13.10;99.90
26182;DHT22;13927;51.534;11.866;2023-11-19T11:12:26;13.10;99.90
26182;DHT22;13927;51.534;11.866;2023-11-19T11:14:53;12.90;99.90
26182;DHT22;13927;51.534;11.866;2023-11-19T11:17:28;12.70;99.90
26182;DHT22;13927;51.534;11.866;2023-11-19T11:20:15;12.70;99.90
26182;DHT22;13927;51.534;11.866;2023-11-19T11:33:15;13.70;99.90
26182;DHT22;13927;51.534;11.866;2023-11-19T11:36:04;13.80;99.90
26182;DHT22;13927;51.534;11.866;2023-11-19T11:38:49;13.80;99.90
26182;DHT22;13927;51.534;11.866;2023-11-19T11:41:25;13.70;99.90
26182;DHT22;13927;51.534;11.866;2023-11-19T11:44:07;13.70;99.90
26182;DHT22;13927;51.534;11.866;2023-11-19T11:46:56;13.80;99.90
26182;DHT22;13927;51.534;11.866;2023-11-19T11:49:30;13.90;99.90
26182;DHT22;13927;51.534;11.866;2023-11-19T11:52:01;13.90;99.90
26182;DHT22;13927;51.534;11.866;2023-11-19T11:54:42;13.90;99.90
26182;DHT22;13927;51.534;11.866;2023-11-19T11:57:12;13.90;99.90
26182;DHT22;13927;51.534;11.866;2023-11-19T11:59:45;14.00;99.90
26182;DHT22;13927;51.534;11.866;2023-11-19T12:02:21;13.80;99.90
26182;DHT22;13927;51.534;11.866;2023-11-19T12:04:50;13.80;99.90
26182;DHT22;13927;51.534;11.866;2023-11-19T12:07:21;13.70;99.90
26182;DHT22;13927;51.534;11.866;2023-11-19T12:10:06;13.60;99.90
26182;DHT22;13927;51.534;11.866;2023-11-19T12:12:44;13.60;99.90
26182;DHT22;13927;51.534;11.866;2023-11-19T12:15:29;13.50;99.90
26182;DHT22;13927;51.534;11.866;2023-11-19T12:18:00;13.60;99.90
26182;DHT22;13927;51.534;11.866;2023-11-19T12:20:26;13.80;99.90
26182;DHT22;13927;51.534;11.866;2023-11-19T12:22:53;13.70;99.90
26182;DHT22;13927;51.534;11.866;2023-11-19T12:25:20;13.70;99.90
26182;DHT22;13927;51.534;11.866;2023-11-19T12:27:48;13.50;99.90
26182;DHT22;13927;51.534;11.866;2023-11-19T12:30:34;13.30;99.90
26182;DHT22;13927;51.534;11.866;2023-11-19T12:33:08;13.20;99.90
26182;DHT22;13927;51.534;11.866;2023-11-19T12:35:41;13.10;99.90
26182;DHT22;13927;51.534;11.866;2023-11-19T12:38:08;13.00;99.90
26182;DHT22;13927;51.534;11.866;2023-11-19T12:41:11;13.00;99.90
26182;DHT22;13927;51.534;11.866;2023-11-19T12:44:31;13.10;99.90
26182;DHT22;13927;51.534;11.866;2023-11-19T12:47:08;13.50;99.90
26182;DHT22;13927;51.534;11.866;2023-11-19T12:49:40;13.80;99.90
26182;DHT22;13927;51.534;11.866;2023-11-19T12:52:14;14.10;99.90
26182;DHT22;13927;51.534;11.866;2023-11-19T12:54:56;14.30;99.90
26182;DHT22;13927;51.534;11.866;2023-11-19T12:57:39;14.40;99.90
26182;DHT22;13927;51.534;11.866;2023-11-19T13:00:30;14.60;99.90
26182;DHT22;13927;51.534;11.866;2023-11-19T13:03:05;14.60;99.90
26182;DHT22;13927;51.534;11.866;2023-11-19T13:05:37;14.70;99.90
26182;DHT22;13927;51.534;11.866;2023-11-19T13:08:09;14.70;99.90
26182;DHT22;13927;51.534;11.866;2023-11-19T13:10:54;14.60;99.90
26182;DHT22;13927;51.534;11.866;2023-11-19T13:13:25;14.70;99.90
26182;DHT22;13927;51.534;11.866;2023-11-19T13:16:12;14.70;99.90
26182;DHT22;13927;51.534;11.866;2023-11-19T13:18:46;14.70;99.90
26182;DHT22;13927;51.534;11.866;2023-11-19T13:21:16;14.50;99.90
26182;DHT22;13927;51.534;11.866;2023-11-19T13:23:49;14.40;99.90
26182;DHT22;13927;51.534;11.866;2023-11-19T13:26:20;14.30;99.90
26182;DHT22;13927;51.534;11.866;2023-11-19T13:28:49;14.30;99.90
26182;DHT22;13927;51.534;11.866;2023-11-19T13:31:25;14.40;99.90
26182;DHT22;13927;51.534;11.866;2023-11-19T13:33:56;14.40;99.90
26182;DHT22;13927;51.534;11.866;2023-11-19T13:36:26;14.50;99.90
26182;DHT22;13927;51.534;11.866;2023-11-19T13:39:02;14.60;99.90
26182;DHT22;13927;51.534;11.866;2023-11-19T13:41:33;14.70;99.90
26182;DHT22;13927;51.534;11.866;2023-11-19T13:44:03;14.80;99.90
26182;DHT22;13927;51.534;11.866;2023-11-19T13:46:31;14.90;99.90
26182;DHT22;13927;51.534;11.866;2023-11-19T13:49:00;14.80;99.90
26182;DHT22;13927;51.534;11.866;2023-11-19T13:51:29;14.80;99.90
26182;DHT22;13927;51.534;11.866;2023-11-19T13:53:55;14.70;99.90
26182;DHT22;13927;51.534;11.866;2023-11-19T13:56:21;14.60;99.90
26182;DHT22;13927;51.534;11.866;2023-11-19T13:58:46;14.20;99.90
26182;DHT22;13927;51.534;11.866;2023-11-19T14:01:12;13.90;99.90
26182;DHT22;13927;51.534;11.866;2023-11-19T14:03:38;13.60;99.90
26182;DHT22;13927;51.534;11.866;2023-11-19T14:06:04;13.40;99.90
26182;DHT22;13927;51.534;11.866;2023-11-19T14:08:31;13.20;99.90
26182;DHT22;13927;51.534;11.866;2023-11-19T14:10:57;13.10;99.90
26182;DHT22;13927;51.534;11.866;2023-11-19T14:13:24;12.90;99.90
26182;DHT22;13927;51.534;11.866;2023-11-19T14:15:50;12.90;99.90
26182;DHT22;13927;51.534;11.866;2023-11-19T14:18:16;12.90;99.90
26182;DHT22;13927;51.534;11.866;2023-11-19T14:20:42;12.80;99.90
26182;DHT22;13927;51.534;11.866;2023-11-19T14:23:09;12.80;99.90
26182;DHT22;13927;51.534;11.866;2023-11-19T14:25:35;12.70;99.90
26182;DHT22;13927;51.534;11.866;2023-11-19T14:28:01;12.70;99.90
26182;DHT22;13927;51.534;11.866;2023-11-19T14:30:27;12.60;99.90
26182;DHT22;13927;51.534;11.866;2023-11-19T14:32:53;12.60;99.90
26182;DHT22;13927;51.534;11.866;2023-11-19T14:35:19;12.70;99.90
26182;DHT22;13927;51.534;11.866;2023-11-19T14:37:45;12.80;99.90
26182;DHT22;13927;51.534;11.866;2023-11-19T14:40:11;12.70;99.90
26182;DHT22;13927;51.534;11.866;2023-11-19T14:42:37;12.60;99.90
26182;DHT22;13927;51.534;11.866;2023-11-19T14:45:05;12.60;99.90
26182;DHT22;13927;51.534;11.866;2023-11-19T14:47:31;12.60;99.90
26182;DHT22;13927;51.534;11.866;2023-11-19T14:49:57;12.50;99.90
26182;DHT22;13927;51.534;11.866;2023-11-19T14:52:23;12.50;99.90
26182;DHT22;13927;51.534;11.866;2023-11-19T14:54:48;12.40;99.90
26182;DHT22;13927;51.534;11.866;2023-11-19T14:57:16;12.30;99.90
26182;DHT22;13927;51.534;11.866;2023-11-19T14:59:42;12.30;99.90
26182;DHT22;13927;51.534;11.866;2023-11-19T15:02:08;12.20;99.90
26182;DHT22;13927;51.534;11.866;2023-11-19T15:04:34;12.10;99.90
26182;DHT22;13927;51.534;11.866;2023-11-19T15:07:00;12.10;99.90
26182;DHT22;13927;51.534;11.866;2023-11-19T15:09:26;12.00;99.90
26182;DHT22;13927;51.534;11.866;2023-11-19T15:11:55;12.00;99.90
26182;DHT22;13927;51.534;11.866;2023-11-19T15:14:23;12.00;99.90
26182;DHT22;13927;51.534;11.866;2023-11-19T15:16:48;12.00;99.90
26182;DHT22;13927;51.534;11.866;2023-11-19T15:19:16;11.90;99.90
26182;DHT22;13927;51.534;11.866;2023-11-19T15:21:42;11.90;99.90
26182;DHT22;13927;51.534;11.866;2023-11-19T15:24:09;11.80;99.90
26182;DHT22;13927;51.534;11.866;2023-11-19T15:26:35;11.80;99.90
26182;DHT22;13927;51.534;11.866;2023-11-19T15:29:05;11.80;99.90
26182;DHT22;13927;51.534;11.866;2023-11-19T15:31:31;11.70;99.90
26182;DHT22;13927;51.534;11.866;2023-11-19T15:33:57;11.70;99.90
26182;DHT22;13927;51.534;11.866;2023-11-19T15:36:23;11.60;99.90
26182;DHT22;13927;51.534;11.866;2023-11-19T15:38:49;11.50;99.90
26182;DHT22;13927;51.534;11.866;2023-11-19T15:41:15;11.40;99.90
26182;DHT22;13927;51.534;11.866;2023-11-19T15:43:41;11.30;99.90
26182;DHT22;13927;51.534;11.866;2023-11-19T15:46:08;11.30;99.90